Time;durP1;ratioP1;P1;durP2;ratioP2;P2;SDS_P1;SDS_P2;PMS_P1;PMS_P2;Temp;Humidity;BMP_temperature;BMP_pressure;BME280_temperature;BME280_humidity;BME280_pressure;Samples;Min_cycle;Max_cycle;Signal;HPM_P1;HPM_P2
2022/06/15 00:00:45;;;;;;;1.00;0.65;;;13.40;99.90;;;;;;5022350;28;20053;-73
2022/06/15 00:03:13;;;;;;;3.90;0.85;;;13.40;99.90;;;;;;5022976;28;20030;-73
2022/06/15 00:05:42;;;;;;;3.20;1.33;;;13.40;99.90;;;;;;5022696;28;20029;-72
2022/06/15 00:08:09;;;;;;;4.55;1.15;;;13.30;99.90;;;;;;5022970;28;20026;-74
2022/06/15 00:10:35;;;;;;;1.27;0.82;;;13.30;99.90;;;;;;5023203;28;20434;-73
2022/06/15 00:13:01;;;;;;;1.65;0.90;;;13.30;99.90;;;;;;5004924;28;20024;-72
2022/06/15 00:15:27;;;;;;;2.47;0.90;;;13.20;99.90;;;;;;5005566;28;20033;-71
2022/06/15 00:17:53;;;;;;;1.75;1.08;;;13.10;99.90;;;;;;5021848;28;20053;-73
2022/06/15 00:20:18;;;;;;;1.17;0.88;;;13.20;99.90;;;;;;5022541;28;20022;-71
2022/06/15 00:22:44;;;;;;;1.48;0.88;;;13.10;99.90;;;;;;5022866;28;20022;-72
2022/06/15 00:25:10;;;;;;;1.50;0.63;;;13.10;99.90;;;;;;5022837;28;20026;-72
2022/06/15 00:27:36;;;;;;;2.25;1.00;;;13.10;99.90;;;;;;5022298;28;20076;-72
2022/06/15 00:30:07;;;;;;;1.85;0.88;;;13.10;99.90;;;;;;5022781;28;20042;-73
2022/06/15 00:32:33;;;;;;;2.03;0.85;;;13.10;99.90;;;;;;5022385;28;20036;-72
2022/06/15 00:34:58;;;;;;;1.88;0.70;;;13.00;99.90;;;;;;5022648;28;20018;-72
2022/06/15 00:37:24;;;;;;;1.27;0.70;;;13.00;99.90;;;;;;5005004;28;20033;-73
2022/06/15 00:39:50;;;;;;;1.60;0.95;;;13.00;99.90;;;;;;5022594;28;20026;-72
2022/06/15 00:42:16;;;;;;;1.42;0.98;;;13.00;99.90;;;;;;5004580;28;20029;-72
2022/06/15 00:44:42;;;;;;;2.13;0.90;;;13.00;99.90;;;;;;5021891;28;20034;-72
2022/06/15 00:47:47;;;;;;;3.30;1.33;;;13.00;99.90;;;;;;5022466;28;20670;-72
2022/06/15 00:50:19;;;;;;;4.50;1.38;;;12.90;99.90;;;;;;4926058;29;20051;-72
2022/06/15 00:52:52;;;;;;;1.55;0.73;;;12.80;99.90;;;;;;4942687;29;20078;-73
2022/06/15 00:55:25;;;;;;;4.82;1.33;;;12.80;99.90;;;;;;4986923;28;20030;-72
2022/06/15 00:57:51;;;;;;;0.40;0.40;;;12.70;99.90;;;;;;5022366;28;20029;-74
2022/06/15 01:00:18;;;;;;;1.27;0.73;;;12.70;99.90;;;;;;5022516;28;20018;-72
2022/06/15 01:02:43;;;;;;;1.27;0.80;;;12.60;99.90;;;;;;5022124;28;20033;-72
2022/06/15 01:05:17;;;;;;;0.98;0.77;;;12.50;99.90;;;;;;5004836;28;20053;-73
2022/06/15 01:08:00;;;;;;;;;;;12.50;99.90;;;;;;5022310;28;20034;-72
2022/06/15 01:10:34;;;;;;;1.75;0.85;;;12.40;99.90;;;;;;5021321;28;19921;-71
2022/06/15 01:13:30;;;;;;;4.05;1.48;;;12.40;99.90;;;;;;5022449;28;20041;-74
2022/06/15 01:16:28;;;;;;;1.30;0.50;;;12.30;99.90;;;;;;5004700;28;20122;-72
2022/06/15 01:19:08;;;;;;;3.08;1.20;;;12.30;99.90;;;;;;5021556;28;20054;-73
2022/06/15 01:21:39;;;;;;;5.78;0.88;;;12.20;99.90;;;;;;5022208;28;20034;-73
2022/06/15 01:24:24;;;;;;;0.70;0.65;;;12.10;99.90;;;;;;5021368;28;20038;-72
2022/06/15 01:27:21;;;;;;;1.38;0.75;;;12.20;99.90;;;;;;5022081;28;20033;-72
2022/06/15 01:30:06;;;;;;;1.73;0.82;;;12.10;99.90;;;;;;5004239;28;20041;-72
2022/06/15 01:32:43;;;;;;;1.15;0.70;;;12.00;99.90;;;;;;5021954;28;20096;-73
2022/06/15 01:35:22;;;;;;;1.70;0.90;;;12.00;99.90;;;;;;5022055;28;20173;-72
2022/06/15 01:37:57;;;;;;;2.58;1.05;;;12.00;99.90;;;;;;5021556;28;20041;-74
2022/06/15 01:40:33;;;;;;;3.17;1.05;;;12.00;99.90;;;;;;5021589;28;20014;-73
2022/06/15 01:43:16;;;;;;;2.95;1.48;;;12.00;99.90;;;;;;5022233;28;20053;-74
2022/06/15 01:45:44;;;;;;;5.97;1.10;;;12.00;99.90;;;;;;5003828;28;20048;-72
2022/06/15 01:48:11;;;;;;;2.67;1.30;;;12.00;99.90;;;;;;5021577;28;20030;-73
2022/06/15 01:50:43;;;;;;;1.67;1.17;;;12.00;99.90;;;;;;5021339;28;20471;-74
2022/06/15 01:53:20;;;;;;;1.02;0.65;;;12.00;99.90;;;;;;5021873;28;20033;-73
2022/06/15 01:56:07;;;;;;;1.85;1.25;;;11.90;99.90;;;;;;5004728;28;20033;-73
2022/06/15 01:58:35;;;;;;;1.55;0.73;;;11.90;99.90;;;;;;5024857;28;20055;-72
2022/06/15 02:01:28;;;;;;;8.23;0.82;;;11.90;99.90;;;;;;5025142;28;20028;-74
2022/06/15 02:04:07;;;;;;;2.75;1.42;;;11.90;99.90;;;;;;4998851;28;20030;-72
2022/06/15 02:07:01;;;;;;;7.28;1.05;;;11.90;99.90;;;;;;5024695;28;20041;-74
2022/06/15 02:09:51;;;;;;;1.40;0.70;;;11.90;99.90;;;;;;5024913;28;20030;-73
2022/06/15 02:12:23;;;;;;;0.85;0.73;;;11.90;99.90;;;;;;5024880;28;20026;-73
2022/06/15 02:14:53;;;;;;;1.55;1.05;;;11.90;99.90;;;;;;5024995;28;20029;-73
2022/06/15 02:17:36;;;;;;;2.85;1.00;;;11.90;99.90;;;;;;5025094;28;20068;-73
2022/06/15 02:20:15;;;;;;;2.42;1.13;;;11.90;99.90;;;;;;5024317;28;20022;-74
2022/06/15 02:22:41;;;;;;;1.60;0.95;;;11.90;99.90;;;;;;5025087;28;20034;-73
2022/06/15 02:25:13;;;;;;;3.33;1.13;;;11.80;99.90;;;;;;5024640;28;20068;-74
2022/06/15 02:27:41;;;;;;;1.88;1.00;;;11.80;99.90;;;;;;5024275;28;20033;-72
2022/06/15 02:30:13;;;;;;;1.55;0.75;;;11.70;99.90;;;;;;5024455;28;20053;-74
2022/06/15 02:32:42;;;;;;;2.97;0.88;;;11.70;99.90;;;;;;5007128;28;20021;-74
2022/06/15 02:35:08;;;;;;;5.03;1.10;;;11.70;99.90;;;;;;5024414;28;20106;-72
2022/06/15 02:37:35;;;;;;;1.33;0.90;;;11.70;99.90;;;;;;5024866;28;20057;-74
2022/06/15 02:40:01;;;;;;;1.23;0.82;;;11.70;99.90;;;;;;5024280;28;20022;-73
2022/06/15 02:42:45;;;;;;;2.58;0.85;;;11.60;99.90;;;;;;5023867;28;20794;-73
2022/06/15 02:45:20;;;;;;;1.23;1.02;;;11.60;99.90;;;;;;5024399;28;20041;-73
2022/06/15 02:47:47;;;;;;;1.75;1.20;;;11.60;99.90;;;;;;5023682;28;20492;-72
2022/06/15 02:50:17;;;;;;;1.27;0.80;;;11.60;99.90;;;;;;5024497;28;20105;-72
2022/06/15 02:52:52;;;;;;;1.35;0.95;;;11.50;99.90;;;;;;5024049;28;20022;-73
2022/06/15 02:55:19;;;;;;;0.88;0.70;;;11.50;99.90;;;;;;5024256;28;20041;-74
2022/06/15 02:57:53;;;;;;;1.30;1.02;;;11.50;99.90;;;;;;5024320;28;20030;-72
2022/06/15 03:00:22;;;;;;;3.58;1.08;;;11.50;99.90;;;;;;5023560;28;20030;-72
2022/06/15 03:02:48;;;;;;;1.08;0.80;;;11.50;99.90;;;;;;5005970;28;20106;-72
2022/06/15 03:05:14;;;;;;;1.60;1.08;;;11.50;99.90;;;;;;5006618;28;20174;-72
2022/06/15 03:07:42;;;;;;;1.95;1.10;;;11.50;99.90;;;;;;5022992;28;20446;-74
2022/06/15 03:10:09;;;;;;;1.35;1.02;;;11.50;99.90;;;;;;5023725;28;20061;-74
2022/06/15 03:12:35;;;;;;;1.58;1.08;;;11.50;99.90;;;;;;5024121;28;20575;-73
2022/06/15 03:15:02;;;;;;;1.30;0.85;;;11.40;99.90;;;;;;5005965;28;20025;-74
2022/06/15 03:17:31;;;;;;;1.38;1.08;;;11.40;99.90;;;;;;5024035;28;20049;-73
2022/06/15 03:20:00;;;;;;;1.50;0.95;;;11.40;99.90;;;;;;5023549;28;20318;-73
2022/06/15 03:22:26;;;;;;;1.88;1.08;;;11.40;99.90;;;;;;5023330;28;20010;-73
2022/06/15 03:24:51;;;;;;;6.55;1.40;;;11.40;99.90;;;;;;5024096;28;20029;-73
2022/06/15 03:27:18;;;;;;;1.65;1.17;;;11.40;99.90;;;;;;5023213;28;20467;-73
2022/06/15 03:29:45;;;;;;;1.85;1.17;;;11.40;99.90;;;;;;5022549;28;20042;-72
2022/06/15 03:32:15;;;;;;;2.53;1.60;;;11.40;99.90;;;;;;5023262;28;20029;-73
2022/06/15 03:34:41;;;;;;;2.58;1.48;;;11.40;99.90;;;;;;5023351;28;20022;-73
2022/06/15 03:37:07;;;;;;;2.03;1.27;;;11.40;99.90;;;;;;5023605;28;20033;-74
2022/06/15 03:39:34;;;;;;;2.78;1.73;;;11.30;99.90;;;;;;5023819;28;20033;-73
2022/06/15 03:42:15;;;;;;;3.58;1.60;;;11.30;99.90;;;;;;5022061;28;20044;-74
2022/06/15 03:44:42;;;;;;;2.25;1.42;;;11.30;99.90;;;;;;5023480;28;20033;-73
2022/06/15 03:47:13;;;;;;;5.78;2.25;;;11.30;99.90;;;;;;5020673;28;20113;-73
2022/06/15 03:49:39;;;;;;;6.38;1.98;;;11.30;99.90;;;;;;5019665;28;20097;-74
2022/06/15 03:52:06;;;;;;;2.75;1.63;;;11.40;99.90;;;;;;5022277;28;20038;-74
2022/06/15 03:54:32;;;;;;;5.60;2.15;;;11.40;99.90;;;;;;5022156;28;20109;-75
2022/06/15 03:56:57;;;;;;;2.72;1.73;;;11.40;99.90;;;;;;5023304;28;20053;-74
2022/06/15 03:59:23;;;;;;;5.72;2.38;;;11.40;99.90;;;;;;5023340;28;20041;-74
2022/06/15 04:01:49;;;;;;;6.13;2.22;;;11.50;99.90;;;;;;5022819;28;20076;-74
2022/06/15 04:04:14;;;;;;;3.90;2.15;;;11.40;99.90;;;;;;5023123;28;20026;-74
2022/06/15 04:06:41;;;;;;;5.45;1.98;;;11.50;99.90;;;;;;5023029;28;20026;-74
2022/06/15 04:09:07;;;;;;;5.32;2.20;;;11.50;99.90;;;;;;5022792;28;20069;-75
2022/06/15 04:14:17;;;;;;;6.57;2.47;;;11.60;99.90;;;;;;5022485;28;20029;-74
2022/06/15 04:16:43;;;;;;;2.47;1.65;;;11.60;99.90;;;;;;5022397;28;20021;-74
2022/06/15 04:19:11;;;;;;;5.85;1.85;;;11.70;99.90;;;;;;5020287;28;20033;-74
2022/06/15 04:21:37;;;;;;;3.38;1.58;;;11.70;99.90;;;;;;5022049;28;20098;-75
2022/06/15 04:24:04;;;;;;;2.33;1.75;;;11.70;99.90;;;;;;5021877;28;20026;-74
2022/06/15 04:26:30;;;;;;;5.57;2.30;;;11.80;99.90;;;;;;5022488;28;20097;-74
2022/06/15 04:28:56;;;;;;;3.90;1.85;;;11.80;99.90;;;;;;5004940;28;20060;-74
2022/06/15 04:31:22;;;;;;;4.80;2.53;;;11.90;99.90;;;;;;5005091;28;20788;-74
2022/06/15 04:33:47;;;;;;;6.43;2.25;;;11.90;99.90;;;;;;5022635;28;20048;-74
2022/06/15 04:36:14;;;;;;;4.05;2.00;;;11.90;99.90;;;;;;5022309;28;20029;-75
2022/06/15 04:38:41;;;;;;;7.05;2.33;;;12.00;99.90;;;;;;5022554;28;20021;-74
2022/06/15 04:41:07;;;;;;;4.50;2.45;;;12.00;99.90;;;;;;5022355;28;20072;-75
2022/06/15 04:43:32;;;;;;;3.50;1.80;;;12.00;99.90;;;;;;5022415;28;20034;-74
2022/06/15 04:45:58;;;;;;;3.95;2.42;;;12.10;99.90;;;;;;5022417;28;20061;-74
2022/06/15 04:48:24;;;;;;;2.88;1.52;;;12.10;99.90;;;;;;5004771;28;20029;-74
2022/06/15 04:50:49;;;;;;;3.45;1.80;;;12.10;99.90;;;;;;5021957;28;20085;-74
2022/06/15 04:53:15;;;;;;;4.20;1.70;;;12.20;99.90;;;;;;5003967;28;20049;-74
2022/06/15 04:55:40;;;;;;;3.35;2.03;;;12.20;99.90;;;;;;5021906;28;20116;-73
2022/06/15 04:58:06;;;;;;;4.82;2.30;;;12.30;99.90;;;;;;5020756;28;20022;-74
2022/06/15 05:00:40;;;;;;;4.40;2.30;;;12.40;99.90;;;;;;5020889;28;20054;-74
2022/06/15 05:03:07;;;;;;;6.07;3.13;;;12.40;99.90;;;;;;5022235;28;20036;-75
2022/06/15 05:05:33;;;;;;;5.82;2.47;;;12.40;99.90;;;;;;5020919;28;20469;-74
2022/06/15 05:07:59;;;;;;;6.32;1.90;;;12.50;99.90;;;;;;5016003;28;20033;-74
2022/06/15 05:10:26;;;;;;;4.18;1.95;;;12.60;99.90;;;;;;5019242;28;20038;-74
2022/06/15 05:12:53;;;;;;;2.70;1.98;;;12.60;99.90;;;;;;5020995;28;20034;-74
2022/06/15 05:15:24;;;;;;;3.97;2.17;;;12.60;99.90;;;;;;5021929;28;20089;-74
2022/06/15 05:17:50;;;;;;;4.75;2.35;;;12.70;99.90;;;;;;5020793;28;20492;-74
2022/06/15 05:20:16;;;;;;;2.55;1.75;;;12.80;99.90;;;;;;5021831;28;20037;-74
2022/06/15 05:22:42;;;;;;;6.55;2.63;;;12.80;99.90;;;;;;5003865;28;20114;-74
2022/06/15 05:25:09;;;;;;;6.40;1.63;;;12.90;99.90;;;;;;5001606;28;20053;-74
2022/06/15 05:27:36;;;;;;;4.43;2.50;;;12.90;99.90;;;;;;5020058;28;20032;-74
2022/06/15 05:30:05;;;;;;;8.68;1.85;;;13.00;99.90;;;;;;5022533;28;20095;-74
2022/06/15 05:32:31;;;;;;;4.05;2.10;;;13.10;99.90;;;;;;5023645;28;20021;-74
2022/06/15 05:34:57;;;;;;;2.33;1.42;;;13.20;99.90;;;;;;5026146;28;20049;-75
2022/06/15 05:37:33;;;;;;;4.25;1.88;;;13.30;99.90;;;;;;5025775;28;20102;-75
2022/06/15 05:39:59;;;;;;;5.40;2.25;;;13.30;99.90;;;;;;5023850;28;20466;-75
2022/06/15 05:42:28;;;;;;;1.33;1.20;;;13.40;99.90;;;;;;5006951;28;20044;-74
2022/06/15 05:44:55;;;;;;;4.20;1.38;;;13.50;99.90;;;;;;5024995;28;20057;-74
2022/06/15 05:47:20;;;;;;;4.05;2.10;;;13.40;99.90;;;;;;5024905;28;20026;-74
2022/06/15 05:49:46;;;;;;;5.78;1.60;;;13.60;99.90;;;;;;5025533;28;20073;-75
2022/06/15 05:52:12;;;;;;;2.47;1.42;;;13.70;99.90;;;;;;5025403;28;20021;-75
2022/06/15 05:54:38;;;;;;;1.83;0.98;;;13.70;99.90;;;;;;5024625;28;20474;-74
2022/06/15 05:57:19;;;;;;;1.63;1.42;;;13.80;99.90;;;;;;5025539;28;20030;-74
2022/06/15 05:59:46;;;;;;;2.08;1.23;;;13.90;99.90;;;;;;5024981;28;20049;-74
2022/06/15 06:02:12;;;;;;;2.78;1.25;;;13.90;99.90;;;;;;5006364;28;20026;-74
2022/06/15 06:04:38;;;;;;;1.58;1.08;;;14.00;99.90;;;;;;5018520;28;20073;-76
2022/06/15 06:07:05;;;;;;;4.00;1.38;;;14.00;99.90;;;;;;5007083;28;20029;-75
2022/06/15 06:09:31;;;;;;;4.78;1.55;;;14.10;99.90;;;;;;5024003;28;20112;-74
2022/06/15 06:11:57;;;;;;;2.85;1.30;;;14.20;99.90;;;;;;5025293;28;20034;-74
2022/06/15 06:14:22;;;;;;;2.80;1.38;;;14.30;99.90;;;;;;5024821;28;20056;-76
2022/06/15 06:16:48;;;;;;;1.67;0.93;;;14.30;99.90;;;;;;5024946;28;20371;-74
2022/06/15 06:19:13;;;;;;;8.38;1.05;;;14.40;99.90;;;;;;5025051;28;20037;-74
2022/06/15 06:21:39;;;;;;;1.45;1.05;;;14.50;99.90;;;;;;5024738;28;20041;-74
2022/06/15 06:24:06;;;;;;;0.93;0.60;;;14.60;99.90;;;;;;5024276;28;20489;-74
2022/06/15 06:26:33;;;;;;;2.63;1.00;;;14.60;99.90;;;;;;5025019;28;20470;-76
2022/06/15 06:29:00;;;;;;;1.50;0.90;;;14.70;99.90;;;;;;5024706;28;20026;-75
2022/06/15 06:31:27;;;;;;;1.17;0.80;;;14.70;99.90;;;;;;5023941;28;20041;-74
2022/06/15 06:33:54;;;;;;;2.45;0.90;;;14.80;99.90;;;;;;5024524;28;20018;-75
2022/06/15 06:36:33;;;;;;;2.13;1.02;;;14.90;99.90;;;;;;5022627;28;20888;-74
2022/06/15 06:39:02;;;;;;;1.40;0.90;;;15.00;99.90;;;;;;5023902;28;20060;-74
2022/06/15 06:41:30;;;;;;;0.68;0.52;;;15.00;99.90;;;;;;5023242;28;20030;-74
2022/06/15 06:43:55;;;;;;;1.02;0.63;;;15.10;99.90;;;;;;5023179;28;20025;-74
2022/06/15 06:46:21;;;;;;;1.77;0.75;;;15.20;99.90;;;;;;5024641;28;20029;-74
2022/06/15 06:48:47;;;;;;;3.00;0.88;;;15.30;99.90;;;;;;5022139;28;20025;-73
2022/06/15 06:51:13;;;;;;;1.55;0.85;;;15.40;99.90;;;;;;5022465;28;20046;-73
2022/06/15 06:53:40;;;;;;;1.80;0.63;;;15.50;99.90;;;;;;5021921;28;20021;-74
2022/06/15 06:56:08;;;;;;;1.67;0.90;;;15.60;99.90;;;;;;5022522;28;20030;-75
2022/06/15 06:58:34;;;;;;;1.38;0.70;;;15.60;99.90;;;;;;5022283;28;20045;-75
2022/06/15 07:01:01;;;;;;;2.10;0.77;;;15.60;99.90;;;;;;5021907;28;20038;-75
2022/06/15 07:03:28;;;;;;;1.25;0.70;;;15.80;99.90;;;;;;5023723;28;20045;-75
2022/06/15 07:06:02;;;;;;;4.13;0.68;;;15.80;99.90;;;;;;5024292;28;20026;-74
2022/06/15 07:08:28;;;;;;;2.73;0.80;;;16.00;99.90;;;;;;5024308;28;20449;-75
2022/06/15 07:10:53;;;;;;;0.70;0.60;;;16.10;99.90;;;;;;5023186;28;20296;-73
2022/06/15 07:13:19;;;;;;;1.08;0.55;;;16.10;99.90;;;;;;5005681;28;20061;-73
2022/06/15 07:15:45;;;;;;;1.75;0.85;;;16.20;99.90;;;;;;5023819;28;20048;-75
2022/06/15 07:18:10;;;;;;;2.40;1.17;;;16.30;99.90;;;;;;5020614;28;20060;-74
2022/06/15 07:20:36;;;;;;;1.63;0.80;;;16.50;99.90;;;;;;5022681;28;20073;-74
2022/06/15 07:23:03;;;;;;;1.38;0.65;;;16.50;99.90;;;;;;5022877;28;20026;-74
2022/06/15 07:25:29;;;;;;;2.72;0.60;;;16.50;99.90;;;;;;5022550;28;20034;-74
2022/06/15 07:27:56;;;;;;;1.05;0.63;;;16.60;99.90;;;;;;5022655;28;20018;-75
2022/06/15 07:30:25;;;;;;;0.82;0.73;;;16.70;99.90;;;;;;5022891;28;20121;-74
2022/06/15 07:32:51;;;;;;;1.20;0.68;;;16.80;99.90;;;;;;5022672;28;20061;-73
2022/06/15 07:35:26;;;;;;;2.13;0.82;;;16.80;99.90;;;;;;5023092;28;20048;-74
2022/06/15 07:37:52;;;;;;;1.80;0.85;;;17.00;99.90;;;;;;5023239;28;20116;-73
2022/06/15 07:40:20;;;;;;;2.55;0.90;;;17.00;99.90;;;;;;5021882;28;20072;-73
2022/06/15 07:42:47;;;;;;;2.08;1.15;;;17.10;99.90;;;;;;5022852;28;20022;-73
2022/06/15 07:45:17;;;;;;;1.25;0.52;;;17.20;99.90;;;;;;5021535;28;20609;-73
2022/06/15 07:50:29;;;;;;;0.93;0.68;;;17.40;99.90;;;;;;5020001;28;20045;-73
2022/06/15 07:52:54;;;;;;;0.70;0.43;;;17.50;99.90;;;;;;5022819;28;20418;-73
2022/06/15 07:55:26;;;;;;;1.25;0.75;;;17.50;99.90;;;;;;5023196;28;20085;-73
2022/06/15 07:57:53;;;;;;;0.90;0.40;;;17.60;99.90;;;;;;5022849;28;20036;-74
2022/06/15 08:00:21;;;;;;;0.70;0.50;;;17.70;99.90;;;;;;5022475;28;20032;-74
2022/06/15 08:02:47;;;;;;;0.45;0.32;;;17.70;99.90;;;;;;5020231;28;20033;-73
2022/06/15 08:05:14;;;;;;;0.52;0.50;;;17.90;99.90;;;;;;5003433;28;20113;-74
2022/06/15 08:07:40;;;;;;;1.02;0.68;;;18.00;99.90;;;;;;5020335;28;20029;-73
2022/06/15 08:10:06;;;;;;;0.88;0.50;;;18.00;99.90;;;;;;5022337;28;20069;-73
2022/06/15 08:12:33;;;;;;;1.35;0.70;;;18.10;99.90;;;;;;5003794;28;20049;-74
2022/06/15 08:15:01;;;;;;;0.65;0.50;;;18.20;99.90;;;;;;5021671;28;20167;-74
2022/06/15 08:17:31;;;;;;;4.00;0.90;;;18.30;99.90;;;;;;5003056;28;20053;-72
2022/06/15 08:20:23;;;;;;;0.73;0.60;;;18.40;99.90;;;;;;5019629;28;20033;-74
2022/06/15 08:22:53;;;;;;;1.88;0.70;;;18.50;99.90;;;;;;5007480;28;20048;-74
2022/06/15 08:25:23;;;;;;;1.98;0.93;;;18.60;99.90;;;;;;5021085;28;20038;-74
2022/06/15 08:27:49;;;;;;;1.17;0.47;;;18.60;99.90;;;;;;5022172;28;20021;-74
2022/06/15 08:30:18;;;;;;;1.83;0.85;;;18.70;99.90;;;;;;5021696;28;20033;-74
2022/06/15 08:32:45;;;;;;;0.77;0.35;;;18.70;99.90;;;;;;5020999;28;20034;-75
2022/06/15 08:35:12;;;;;;;1.00;0.70;;;18.80;99.90;;;;;;5022164;28;20029;-73
2022/06/15 08:37:38;;;;;;;1.52;0.80;;;18.90;99.90;;;;;;5021192;28;20391;-75
2022/06/15 08:40:06;;;;;;;2.13;0.75;;;19.00;99.90;;;;;;5022762;28;20072;-76
2022/06/15 08:42:46;;;;;;;1.15;0.55;;;19.10;99.90;;;;;;5022163;28;20048;-76
2022/06/15 08:45:26;;;;;;;0.95;0.70;;;19.20;99.90;;;;;;5021704;28;20029;-76
2022/06/15 08:48:18;;;;;;;1.60;1.00;;;19.30;99.90;;;;;;5002642;28;20050;-74
2022/06/15 08:51:02;;;;;;;1.92;0.88;;;19.50;99.90;;;;;;5020579;28;20046;-74
2022/06/15 08:53:32;;;;;;;1.38;1.10;;;19.50;99.90;;;;;;5021252;28;21130;-74
2022/06/15 08:56:08;;;;;;;1.60;0.65;;;19.40;99.90;;;;;;5022376;28;20018;-73
2022/06/15 08:58:48;;;;;;;1.58;0.60;;;19.40;99.90;;;;;;5022835;28;20079;-75
2022/06/15 09:01:31;;;;;;;1.13;0.75;;;19.40;99.90;;;;;;5004461;28;20026;-75
2022/06/15 09:04:21;;;;;;;1.60;0.93;;;19.30;99.90;;;;;;5004567;28;20113;-73
2022/06/15 09:06:55;;;;;;;4.38;0.95;;;19.30;99.90;;;;;;5024159;28;20395;-74
2022/06/15 09:09:27;;;;;;;;;;;19.40;99.90;;;;;;5021659;28;20046;-74
2022/06/15 09:15:23;;;;;;;0.82;0.47;;;19.70;99.90;;;;;;5025952;28;20546;-73
2022/06/15 09:17:52;;;;;;;0.75;0.65;;;19.70;99.90;;;;;;5006867;28;20066;-75
2022/06/15 09:20:26;;;;;;;0.68;0.63;;;19.90;99.90;;;;;;5008093;28;20021;-74
2022/06/15 09:23:17;;;;;;;2.90;1.15;;;20.00;99.90;;;;;;5024846;28;20034;-74
2022/06/15 09:26:05;;;;;;;1.05;0.65;;;20.10;99.90;;;;;;5025800;28;20029;-74
2022/06/15 09:28:42;;;;;;;0.93;0.63;;;20.20;99.90;;;;;;5020956;28;20041;-73
2022/06/15 09:31:18;;;;;;;1.13;0.80;;;20.40;99.90;;;;;;5024920;28;20053;-73
2022/06/15 09:33:52;;;;;;;0.77;0.57;;;20.60;99.90;;;;;;5025834;28;20140;-73
2022/06/15 09:36:22;;;;;;;1.75;0.82;;;20.70;99.90;;;;;;5025588;28;20041;-74
2022/06/15 09:38:48;;;;;;;2.25;0.75;;;20.70;99.90;;;;;;5025240;28;20044;-73
2022/06/15 09:41:20;;;;;;;1.60;0.70;;;20.80;99.90;;;;;;5025853;28;20097;-74
2022/06/15 09:43:57;;;;;;;2.47;0.60;;;20.90;99.90;;;;;;5025727;28;20112;-72
2022/06/15 09:46:39;;;;;;;3.58;1.25;;;21.10;99.90;;;;;;5025283;28;20432;-69
2022/06/15 09:49:29;;;;;;;1.70;0.85;;;21.30;99.90;;;;;;5025141;28;20022;-73
2022/06/15 09:51:58;;;;;;;1.25;0.70;;;21.00;99.90;;;;;;5024901;28;20030;-73
2022/06/15 09:54:37;;;;;;;1.40;0.90;;;20.90;99.90;;;;;;5025464;28;20024;-73
2022/06/15 09:57:03;;;;;;;1.23;0.73;;;20.70;99.90;;;;;;5025677;28;20049;-73
2022/06/15 09:59:33;;;;;;;1.27;0.60;;;20.50;99.90;;;;;;5025119;28;20030;-74
2022/06/15 10:02:03;;;;;;;1.23;0.80;;;20.30;99.90;;;;;;5007813;28;20390;-74
2022/06/15 10:04:31;;;;;;;7.43;0.80;;;20.30;99.90;;;;;;5025223;28;20018;-75
2022/06/15 10:07:09;;;;;;;0.98;0.50;;;20.40;99.90;;;;;;5024603;28;20481;-75
2022/06/15 10:09:51;;;;;;;4.47;0.80;;;20.40;99.90;;;;;;5025120;28;20033;-74
2022/06/15 10:13:02;;;;;;;0.77;0.73;;;20.30;99.90;;;;;;5025229;28;20065;-74
2022/06/15 10:15:32;;;;;;;3.30;0.73;;;20.40;99.90;;;;;;4988083;28;20068;-74
2022/06/15 10:18:14;;;;;;;0.80;0.63;;;20.70;99.90;;;;;;5023828;28;20049;-74
2022/06/15 10:20:41;;;;;;;3.70;1.05;;;21.00;99.90;;;;;;5024998;28;20014;-73
2022/06/15 10:23:27;;;;;;;1.23;0.70;;;21.30;99.90;;;;;;5025060;28;20018;-75
2022/06/15 10:25:55;;;;;;;0.80;0.70;;;21.50;99.90;;;;;;5025061;28;20038;-73
2022/06/15 10:28:31;;;;;;;1.92;0.80;;;21.70;99.90;;;;;;5024564;28;20026;-74
2022/06/15 10:31:01;;;;;;;3.65;1.10;;;21.80;99.90;;;;;;5025006;28;20042;-72
2022/06/15 10:33:37;;;;;;;1.98;0.80;;;21.90;99.90;;;;;;5024470;28;20044;-74
2022/06/15 10:36:12;;;;;;;1.23;0.50;;;22.00;99.90;;;;;;5024348;28;20029;-74
2022/06/15 10:38:42;;;;;;;2.28;0.80;;;22.00;99.90;;;;;;5024510;28;20034;-74
2022/06/15 10:43:52;;;;;;;1.25;0.60;;;22.20;99.90;;;;;;5024707;28;20045;-74
2022/06/15 10:46:20;;;;;;;1.45;0.70;;;22.40;99.90;;;;;;5024513;28;20030;-74
2022/06/15 10:48:47;;;;;;;1.70;0.82;;;22.60;99.90;;;;;;5023868;28;20021;-75
2022/06/15 10:51:27;;;;;;;1.30;0.93;;;22.80;99.90;;;;;;5006186;28;20037;-70
2022/06/15 10:54:17;;;;;;;0.88;0.40;;;22.90;99.90;;;;;;5006534;28;20402;-72
2022/06/15 11:02:28;;;;;;;1.23;0.70;;;23.30;99.90;;;;;;5021298;28;20387;-72
2022/06/15 11:05:09;;;;;;;1.25;0.80;;;23.40;99.90;;;;;;5023035;28;20030;-71
2022/06/15 11:08:26;;;;;;;1.30;0.68;;;23.40;99.90;;;;;;5022043;28;20104;-72
2022/06/15 11:11:10;;;;;;;1.92;0.80;;;23.40;99.90;;;;;;5010637;28;20065;-74
2022/06/15 11:13:39;;;;;;;0.60;0.40;;;23.40;99.90;;;;;;5024137;28;20030;-73
2022/06/15 11:19:26;;;;;;;2.20;0.80;;;23.40;99.90;;;;;;4998506;28;20064;-73
2022/06/15 11:21:59;;;;;;;1.58;0.77;;;23.40;99.90;;;;;;5023183;28;20033;-74
2022/06/15 11:24:40;;;;;;;0.93;0.70;;;23.50;99.90;;;;;;5023312;28;20026;-74
2022/06/15 11:27:16;;;;;;;1.42;0.63;;;23.60;99.90;;;;;;5005985;28;20030;-74
2022/06/15 11:29:53;;;;;;;1.13;0.35;;;23.80;99.90;;;;;;5023016;28;20041;-74
2022/06/15 11:32:31;;;;;;;1.52;0.60;;;23.90;99.90;;;;;;5023385;28;20083;-73
2022/06/15 11:35:12;;;;;;;0.90;0.60;;;24.20;99.90;;;;;;5023896;28;20564;-73
2022/06/15 11:38:02;;;;;;;0.52;0.43;;;24.40;99.90;;;;;;5023758;28;20089;-72
2022/06/15 11:40:40;;;;;;;2.05;0.90;;;24.50;99.90;;;;;;5023549;28;20048;-74
2022/06/15 11:43:20;;;;;;;0.95;0.63;;;24.70;99.90;;;;;;5023322;28;20029;-74
2022/06/15 11:46:11;;;;;;;1.38;0.65;;;24.90;99.90;;;;;;5023145;28;20030;-73
2022/06/15 11:48:50;;;;;;;1.48;0.68;;;25.00;99.90;;;;;;5023499;28;20419;-72
2022/06/15 11:51:37;;;;;;;0.85;0.50;;;25.00;99.90;;;;;;5023121;28;20042;-73
2022/06/15 11:54:22;;;;;;;0.60;0.45;;;25.10;99.90;;;;;;5023660;28;20052;-74
2022/06/15 11:56:59;;;;;;;7.38;0.75;;;25.00;99.90;;;;;;5022299;28;20022;-72
2022/06/15 11:59:34;;;;;;;1.52;0.65;;;24.90;99.90;;;;;;5004666;28;20037;-74
2022/06/15 12:02:14;;;;;;;1.55;0.77;;;24.90;99.90;;;;;;5022952;28;20022;-72
2022/06/15 12:05:18;;;;;;;1.35;0.75;;;24.90;99.90;;;;;;5022150;28;20097;-73
2022/06/15 12:07:56;;;;;;;0.40;0.30;;;25.00;99.90;;;;;;4979638;28;20030;-70
2022/06/15 12:10:41;;;;;;;1.95;0.98;;;25.10;99.90;;;;;;5015826;28;20061;-74
2022/06/15 12:13:38;;;;;;;0.55;0.55;;;25.00;99.90;;;;;;5022294;28;20034;-74
2022/06/15 12:16:14;;;;;;;0.40;0.40;;;25.00;99.90;;;;;;5021714;28;20554;-75
2022/06/15 12:18:45;;;;;;;1.33;0.75;;;24.80;99.90;;;;;;5022012;28;20062;-73
2022/06/15 12:21:53;;;;;;;1.25;0.60;;;24.50;99.90;;;;;;5004979;28;20068;-73
2022/06/15 12:24:21;;;;;;;1.83;0.80;;;24.20;99.90;;;;;;5022127;28;20128;-74
2022/06/15 12:26:53;;;;;;;1.38;0.85;;;24.00;99.90;;;;;;5020155;28;20017;-74
2022/06/15 12:29:41;;;;;;;1.83;0.82;;;23.70;99.90;;;;;;5021634;28;20103;-75
2022/06/15 12:32:34;;;;;;;1.23;0.63;;;23.70;99.90;;;;;;5021532;28;20080;-74
2022/06/15 12:35:18;;;;;;;1.60;0.80;;;23.90;99.90;;;;;;5020330;28;20418;-72
2022/06/15 12:38:05;;;;;;;1.38;1.00;;;24.30;99.90;;;;;;5021714;28;20026;-72
2022/06/15 12:40:32;;;;;;;0.90;0.80;;;24.50;99.90;;;;;;5021806;28;20053;-73
2022/06/15 12:43:27;;;;;;;1.05;0.65;;;24.50;99.90;;;;;;5005156;28;20029;-72
2022/06/15 12:46:21;;;;;;;0.47;0.38;;;24.50;99.90;;;;;;5021132;28;20518;-70
2022/06/15 12:49:06;;;;;;;1.20;0.50;;;24.70;99.90;;;;;;5016735;28;20097;-70
2022/06/15 12:51:46;;;;;;;0.98;0.68;;;25.00;99.90;;;;;;5022554;28;20038;-72
2022/06/15 12:54:16;;;;;;;0.95;0.77;;;25.20;99.90;;;;;;5021058;28;20026;-74
2022/06/15 12:57:14;;;;;;;0.93;0.70;;;25.20;99.90;;;;;;5001547;28;20044;-72
2022/06/15 12:59:57;;;;;;;1.75;0.80;;;25.00;99.90;;;;;;5007123;28;20037;-70
2022/06/15 13:02:36;;;;;;;1.43;0.90;;;25.10;99.90;;;;;;5020087;28;20042;-73
2022/06/15 13:05:25;;;;;;;1.42;0.90;;;25.00;99.90;;;;;;5021295;28;20018;-73
2022/06/15 13:08:22;;;;;;;0.73;0.50;;;24.50;99.90;;;;;;5020057;28;20041;-73
2022/06/15 13:10:53;;;;;;;1.13;0.75;;;24.10;99.90;;;;;;5019366;28;20053;-74
2022/06/15 13:13:40;;;;;;;0.63;0.38;;;23.80;99.90;;;;;;5018808;28;20057;-73
2022/06/15 13:16:34;;;;;;;1.75;0.82;;;23.70;99.90;;;;;;5001585;28;20028;-72
2022/06/15 13:19:04;;;;;;;2.13;0.93;;;23.60;99.90;;;;;;4993146;28;20058;-74
2022/06/15 13:22:14;;;;;;;0.73;0.55;;;23.70;99.90;;;;;;5001506;28;20026;-72
2022/06/15 13:24:53;;;;;;;1.25;0.70;;;24.00;99.90;;;;;;4998948;28;20034;-72
2022/06/15 13:27:39;;;;;;;1.30;0.75;;;24.60;99.90;;;;;;5000694;28;20034;-72
2022/06/15 13:30:19;;;;;;;1.23;0.63;;;25.10;99.90;;;;;;5001838;28;20169;-71
2022/06/15 13:33:02;;;;;;;2.88;0.50;;;25.60;99.90;;;;;;5000932;28;20014;-73
2022/06/15 13:35:43;;;;;;;0.60;0.50;;;25.90;99.90;;;;;;5000838;28;20137;-75
2022/06/15 13:38:22;;;;;;;0.82;0.52;;;26.40;99.90;;;;;;5016311;28;20117;-73